sensor_id;sensor_type;location;lat;lon;timestamp;P1;durP1;ratioP1;P2;durP2;ratioP2
705;SDS011;21234;48.690;9.016;2023-05-07T00:01:49;4.10;;;3.30;;
705;SDS011;21234;48.690;9.016;2023-05-07T00:04:17;3.40;;;3.10;;
705;SDS011;21234;48.690;9.016;2023-05-07T00:06:43;4.83;;;3.20;;
705;SDS011;21234;48.690;9.016;2023-05-07T00:09:10;4.33;;;3.00;;
705;SDS011;21234;48.690;9.016;2023-05-07T00:11:37;3.40;;;3.10;;
705;SDS011;21234;48.690;9.016;2023-05-07T00:14:04;3.57;;;3.27;;
705;SDS011;21234;48.690;9.016;2023-05-07T00:16:32;4.23;;;3.13;;
705;SDS011;21234;48.690;9.016;2023-05-07T00:18:58;5.03;;;3.63;;
705;SDS011;21234;48.690;9.016;2023-05-07T00:21:25;3.57;;;3.27;;
705;SDS011;21234;48.690;9.016;2023-05-07T00:23:52;3.03;;;2.83;;
705;SDS011;21234;48.690;9.016;2023-05-07T00:26:19;5.27;;;2.90;;
705;SDS011;21234;48.690;9.016;2023-05-07T00:28:45;3.67;;;3.10;;
705;SDS011;21234;48.690;9.016;2023-05-07T00:31:12;5.40;;;3.37;;
705;SDS011;21234;48.690;9.016;2023-05-07T00:33:40;4.00;;;3.70;;
705;SDS011;21234;48.690;9.016;2023-05-07T00:36:07;4.00;;;3.60;;
705;SDS011;21234;48.690;9.016;2023-05-07T00:38:33;4.57;;;3.27;;
705;SDS011;21234;48.690;9.016;2023-05-07T00:41:00;3.43;;;3.13;;
705;SDS011;21234;48.690;9.016;2023-05-07T00:43:27;4.40;;;3.23;;
705;SDS011;21234;48.690;9.016;2023-05-07T00:45:54;4.33;;;3.93;;
705;SDS011;21234;48.690;9.016;2023-05-07T00:48:21;3.37;;;3.07;;
705;SDS011;21234;48.690;9.016;2023-05-07T00:50:50;3.67;;;3.37;;
705;SDS011;21234;48.690;9.016;2023-05-07T00:53:17;4.30;;;3.90;;
705;SDS011;21234;48.690;9.016;2023-05-07T00:55:44;4.00;;;3.60;;
705;SDS011;21234;48.690;9.016;2023-05-07T00:58:11;5.07;;;4.13;;
705;SDS011;21234;48.690;9.016;2023-05-07T01:00:38;4.67;;;4.17;;
705;SDS011;21234;48.690;9.016;2023-05-07T01:03:05;4.30;;;4.00;;
705;SDS011;21234;48.690;9.016;2023-05-07T01:05:32;4.50;;;3.53;;
705;SDS011;21234;48.690;9.016;2023-05-07T01:08:01;5.70;;;5.07;;
705;SDS011;21234;48.690;9.016;2023-05-07T01:10:28;3.80;;;3.50;;
705;SDS011;21234;48.690;9.016;2023-05-07T01:12:56;5.80;;;3.83;;
705;SDS011;21234;48.690;9.016;2023-05-07T01:15:25;3.27;;;2.97;;
705;SDS011;21234;48.690;9.016;2023-05-07T01:17:51;4.13;;;3.50;;
705;SDS011;21234;48.690;9.016;2023-05-07T01:20:18;3.87;;;3.33;;
705;SDS011;21234;48.690;9.016;2023-05-07T01:22:47;3.50;;;3.20;;
705;SDS011;21234;48.690;9.016;2023-05-07T01:25:14;5.87;;;4.07;;
705;SDS011;21234;48.690;9.016;2023-05-07T01:27:42;3.90;;;3.53;;
705;SDS011;21234;48.690;9.016;2023-05-07T01:30:08;4.83;;;4.33;;
705;SDS011;21234;48.690;9.016;2023-05-07T01:32:37;3.67;;;3.37;;
705;SDS011;21234;48.690;9.016;2023-05-07T01:35:09;6.57;;;3.33;;
705;SDS011;21234;48.690;9.016;2023-05-07T01:37:38;3.63;;;3.33;;
705;SDS011;21234;48.690;9.016;2023-05-07T01:40:07;4.63;;;4.20;;
705;SDS011;21234;48.690;9.016;2023-05-07T01:42:34;3.97;;;3.67;;
705;SDS011;21234;48.690;9.016;2023-05-07T01:45:02;5.10;;;3.83;;
705;SDS011;21234;48.690;9.016;2023-05-07T01:47:29;4.53;;;3.43;;
705;SDS011;21234;48.690;9.016;2023-05-07T01:49:56;5.57;;;3.20;;
705;SDS011;21234;48.690;9.016;2023-05-07T01:52:24;2.90;;;2.70;;
705;SDS011;21234;48.690;9.016;2023-05-07T01:54:51;2.40;;;2.23;;
705;SDS011;21234;48.690;9.016;2023-05-07T01:57:19;3.73;;;3.07;;
705;SDS011;21234;48.690;9.016;2023-05-07T01:59:45;3.83;;;2.83;;
705;SDS011;21234;48.690;9.016;2023-05-07T02:02:12;5.03;;;3.80;;
705;SDS011;21234;48.690;9.016;2023-05-07T02:04:39;4.40;;;4.00;;
705;SDS011;21234;48.690;9.016;2023-05-07T02:07:06;3.53;;;2.83;;
705;SDS011;21234;48.690;9.016;2023-05-07T02:09:32;4.80;;;4.40;;
705;SDS011;21234;48.690;9.016;2023-05-07T02:11:59;3.80;;;3.07;;
705;SDS011;21234;48.690;9.016;2023-05-07T02:14:28;3.47;;;3.17;;
705;SDS011;21234;48.690;9.016;2023-05-07T02:16:54;3.60;;;3.30;;
705;SDS011;21234;48.690;9.016;2023-05-07T02:19:21;3.27;;;2.97;;
705;SDS011;21234;48.690;9.016;2023-05-07T02:21:48;4.53;;;3.80;;
705;SDS011;21234;48.690;9.016;2023-05-07T02:24:14;3.20;;;2.90;;
705;SDS011;21234;48.690;9.016;2023-05-07T02:26:41;3.63;;;3.30;;
705;SDS011;21234;48.690;9.016;2023-05-07T02:29:08;3.20;;;2.90;;
705;SDS011;21234;48.690;9.016;2023-05-07T02:31:36;4.70;;;2.70;;
705;SDS011;21234;48.690;9.016;2023-05-07T02:34:02;3.60;;;3.13;;
705;SDS011;21234;48.690;9.016;2023-05-07T02:36:29;7.50;;;3.90;;
705;SDS011;21234;48.690;9.016;2023-05-07T02:38:56;6.10;;;3.50;;
705;SDS011;21234;48.690;9.016;2023-05-07T02:41:23;5.47;;;5.07;;
705;SDS011;21234;48.690;9.016;2023-05-07T02:43:49;2.93;;;2.73;;
705;SDS011;21234;48.690;9.016;2023-05-07T02:46:16;4.47;;;3.67;;
705;SDS011;21234;48.690;9.016;2023-05-07T02:48:44;5.30;;;3.87;;
705;SDS011;21234;48.690;9.016;2023-05-07T02:51:11;3.70;;;3.40;;
705;SDS011;21234;48.690;9.016;2023-05-07T02:53:37;4.20;;;3.10;;
705;SDS011;21234;48.690;9.016;2023-05-07T02:56:04;4.30;;;3.90;;
705;SDS011;21234;48.690;9.016;2023-05-07T02:58:32;3.60;;;3.27;;
705;SDS011;21234;48.690;9.016;2023-05-07T03:00:58;3.80;;;3.50;;
705;SDS011;21234;48.690;9.016;2023-05-07T03:03:25;3.60;;;3.30;;
705;SDS011;21234;48.690;9.016;2023-05-07T03:05:53;4.33;;;3.30;;
705;SDS011;21234;48.690;9.016;2023-05-07T03:08:20;4.20;;;3.17;;
705;SDS011;21234;48.690;9.016;2023-05-07T03:10:46;4.50;;;3.60;;
705;SDS011;21234;48.690;9.016;2023-05-07T03:13:13;3.57;;;3.10;;
705;SDS011;21234;48.690;9.016;2023-05-07T03:15:40;3.23;;;3.00;;
705;SDS011;21234;48.690;9.016;2023-05-07T03:18:07;3.47;;;2.67;;
705;SDS011;21234;48.690;9.016;2023-05-07T03:20:34;4.30;;;3.23;;
705;SDS011;21234;48.690;9.016;2023-05-07T03:23:02;2.63;;;2.43;;
705;SDS011;21234;48.690;9.016;2023-05-07T03:25:29;3.47;;;3.17;;
705;SDS011;21234;48.690;9.016;2023-05-07T03:27:56;4.50;;;3.30;;
705;SDS011;21234;48.690;9.016;2023-05-07T03:30:23;4.57;;;3.73;;
705;SDS011;21234;48.690;9.016;2023-05-07T03:32:50;6.33;;;3.70;;
705;SDS011;21234;48.690;9.016;2023-05-07T03:35:16;3.00;;;2.70;;
705;SDS011;21234;48.690;9.016;2023-05-07T03:37:43;4.60;;;3.27;;
705;SDS011;21234;48.690;9.016;2023-05-07T03:40:11;4.03;;;3.63;;
705;SDS011;21234;48.690;9.016;2023-05-07T03:42:38;4.30;;;3.87;;
705;SDS011;21234;48.690;9.016;2023-05-07T03:45:05;6.27;;;3.07;;
705;SDS011;21234;48.690;9.016;2023-05-07T03:47:33;3.60;;;3.30;;
705;SDS011;21234;48.690;9.016;2023-05-07T03:49:59;4.33;;;3.23;;
705;SDS011;21234;48.690;9.016;2023-05-07T03:52:26;2.60;;;2.40;;
705;SDS011;21234;48.690;9.016;2023-05-07T03:54:53;4.23;;;3.03;;
705;SDS011;21234;48.690;9.016;2023-05-07T03:57:21;5.73;;;4.70;;
705;SDS011;21234;48.690;9.016;2023-05-07T03:59:47;3.93;;;3.30;;
705;SDS011;21234;48.690;9.016;2023-05-07T04:02:14;3.57;;;3.17;;
705;SDS011;21234;48.690;9.016;2023-05-07T04:04:41;6.37;;;4.17;;
705;SDS011;21234;48.690;9.016;2023-05-07T04:07:07;3.70;;;3.13;;
705;SDS011;21234;48.690;9.016;2023-05-07T04:09:35;3.30;;;3.00;;
705;SDS011;21234;48.690;9.016;2023-05-07T04:12:01;3.47;;;3.17;;
705;SDS011;21234;48.690;9.016;2023-05-07T04:14:30;4.10;;;3.70;;
705;SDS011;21234;48.690;9.016;2023-05-07T04:16:57;5.00;;;3.70;;
705;SDS011;21234;48.690;9.016;2023-05-07T04:19:24;3.40;;;3.10;;
705;SDS011;21234;48.690;9.016;2023-05-07T04:21:51;3.20;;;2.90;;
705;SDS011;21234;48.690;9.016;2023-05-07T04:24:17;3.93;;;3.60;;
705;SDS011;21234;48.690;9.016;2023-05-07T04:26:44;4.60;;;3.30;;
705;SDS011;21234;48.690;9.016;2023-05-07T04:29:11;8.37;;;3.60;;
705;SDS011;21234;48.690;9.016;2023-05-07T04:31:39;3.73;;;3.23;;
705;SDS011;21234;48.690;9.016;2023-05-07T04:34:05;4.90;;;3.70;;
705;SDS011;21234;48.690;9.016;2023-05-07T04:36:32;4.50;;;3.80;;
705;SDS011;21234;48.690;9.016;2023-05-07T04:38:59;4.10;;;3.30;;
705;SDS011;21234;48.690;9.016;2023-05-07T04:41:25;4.40;;;3.93;;
705;SDS011;21234;48.690;9.016;2023-05-07T04:43:52;3.00;;;2.80;;
705;SDS011;21234;48.690;9.016;2023-05-07T04:46:19;3.83;;;3.50;;
705;SDS011;21234;48.690;9.016;2023-05-07T04:48:47;4.00;;;3.33;;
705;SDS011;21234;48.690;9.016;2023-05-07T04:51:14;6.60;;;3.50;;
705;SDS011;21234;48.690;9.016;2023-05-07T04:53:41;3.90;;;3.60;;
705;SDS011;21234;48.690;9.016;2023-05-07T04:56:08;3.70;;;3.40;;
705;SDS011;21234;48.690;9.016;2023-05-07T04:58:34;3.73;;;3.30;;
705;SDS011;21234;48.690;9.016;2023-05-07T05:01:01;3.77;;;3.33;;
705;SDS011;21234;48.690;9.016;2023-05-07T05:03:28;5.33;;;2.80;;
705;SDS011;21234;48.690;9.016;2023-05-07T05:05:56;4.90;;;3.37;;
705;SDS011;21234;48.690;9.016;2023-05-07T05:08:24;4.80;;;3.60;;
705;SDS011;21234;48.690;9.016;2023-05-07T05:10:51;4.53;;;4.13;;
705;SDS011;21234;48.690;9.016;2023-05-07T05:13:17;4.37;;;3.87;;
705;SDS011;21234;48.690;9.016;2023-05-07T05:15:44;4.47;;;3.50;;
705;SDS011;21234;48.690;9.016;2023-05-07T05:18:11;7.53;;;3.87;;
705;SDS011;21234;48.690;9.016;2023-05-07T05:20:38;7.50;;;4.17;;
705;SDS011;21234;48.690;9.016;2023-05-07T05:23:07;3.63;;;3.30;;
705;SDS011;21234;48.690;9.016;2023-05-07T05:25:34;3.57;;;3.27;;
705;SDS011;21234;48.690;9.016;2023-05-07T05:28:00;4.53;;;3.70;;
705;SDS011;21234;48.690;9.016;2023-05-07T05:30:27;4.27;;;3.83;;
705;SDS011;21234;48.690;9.016;2023-05-07T05:32:54;4.47;;;3.47;;
705;SDS011;21234;48.690;9.016;2023-05-07T05:35:21;4.50;;;4.07;;
705;SDS011;21234;48.690;9.016;2023-05-07T05:37:47;3.83;;;3.50;;
705;SDS011;21234;48.690;9.016;2023-05-07T05:40:15;3.77;;;3.47;;
705;SDS011;21234;48.690;9.016;2023-05-07T05:42:42;4.70;;;4.30;;
705;SDS011;21234;48.690;9.016;2023-05-07T05:45:09;4.27;;;3.87;;
705;SDS011;21234;48.690;9.016;2023-05-07T05:47:37;4.13;;;3.83;;
705;SDS011;21234;48.690;9.016;2023-05-07T05:50:04;4.67;;;3.70;;
705;SDS011;21234;48.690;9.016;2023-05-07T05:52:32;3.10;;;2.90;;
705;SDS011;21234;48.690;9.016;2023-05-07T05:54:58;6.90;;;4.00;;
705;SDS011;21234;48.690;9.016;2023-05-07T05:57:26;5.67;;;4.10;;
705;SDS011;21234;48.690;9.016;2023-05-07T05:59:53;4.10;;;3.70;;
705;SDS011;21234;48.690;9.016;2023-05-07T06:02:20;4.37;;;3.80;;
705;SDS011;21234;48.690;9.016;2023-05-07T06:04:47;4.70;;;3.93;;
705;SDS011;21234;48.690;9.016;2023-05-07T06:07:14;5.20;;;4.70;;
705;SDS011;21234;48.690;9.016;2023-05-07T06:09:40;5.03;;;3.40;;
705;SDS011;21234;48.690;9.016;2023-05-07T06:12:07;4.23;;;3.47;;
705;SDS011;21234;48.690;9.016;2023-05-07T06:14:35;4.03;;;3.73;;
705;SDS011;21234;48.690;9.016;2023-05-07T06:17:02;3.83;;;3.53;;
705;SDS011;21234;48.690;9.016;2023-05-07T06:19:29;4.27;;;3.83;;
705;SDS011;21234;48.690;9.016;2023-05-07T06:21:57;3.80;;;3.30;;
705;SDS011;21234;48.690;9.016;2023-05-07T06:24:23;4.13;;;3.07;;
705;SDS011;21234;48.690;9.016;2023-05-07T06:26:51;4.43;;;3.60;;
705;SDS011;21234;48.690;9.016;2023-05-07T06:29:19;3.50;;;3.20;;
705;SDS011;21234;48.690;9.016;2023-05-07T06:31:48;4.30;;;3.13;;
705;SDS011;21234;48.690;9.016;2023-05-07T06:34:16;3.97;;;3.67;;
705;SDS011;21234;48.690;9.016;2023-05-07T06:36:42;4.90;;;2.87;;
705;SDS011;21234;48.690;9.016;2023-05-07T06:39:09;3.37;;;3.07;;
705;SDS011;21234;48.690;9.016;2023-05-07T06:41:36;3.50;;;3.20;;
705;SDS011;21234;48.690;9.016;2023-05-07T06:44:04;3.23;;;2.97;;
705;SDS011;21234;48.690;9.016;2023-05-07T06:46:31;2.90;;;2.70;;
705;SDS011;21234;48.690;9.016;2023-05-07T06:49:00;4.27;;;2.90;;
705;SDS011;21234;48.690;9.016;2023-05-07T06:51:27;2.50;;;2.30;;
705;SDS011;21234;48.690;9.016;2023-05-07T06:53:55;2.97;;;2.77;;
705;SDS011;21234;48.690;9.016;2023-05-07T06:56:21;6.23;;;3.60;;
705;SDS011;21234;48.690;9.016;2023-05-07T06:58:48;2.80;;;2.50;;
705;SDS011;21234;48.690;9.016;2023-05-07T07:01:15;3.90;;;3.23;;
705;SDS011;21234;48.690;9.016;2023-05-07T07:03:41;4.00;;;2.80;;
705;SDS011;21234;48.690;9.016;2023-05-07T07:06:09;3.60;;;3.30;;
705;SDS011;21234;48.690;9.016;2023-05-07T07:08:36;3.10;;;2.37;;
705;SDS011;21234;48.690;9.016;2023-05-07T07:11:03;3.30;;;3.10;;
705;SDS011;21234;48.690;9.016;2023-05-07T07:13:30;3.60;;;3.30;;
705;SDS011;21234;48.690;9.016;2023-05-07T07:15:57;3.33;;;3.03;;
705;SDS011;21234;48.690;9.016;2023-05-07T07:18:24;3.43;;;3.20;;
705;SDS011;21234;48.690;9.016;2023-05-07T07:20:50;3.50;;;2.83;;
705;SDS011;21234;48.690;9.016;2023-05-07T07:23:18;3.77;;;3.27;;
705;SDS011;21234;48.690;9.016;2023-05-07T07:25:45;3.47;;;3.27;;
705;SDS011;21234;48.690;9.016;2023-05-07T07:28:12;4.20;;;3.80;;
705;SDS011;21234;48.690;9.016;2023-05-07T07:30:39;3.57;;;3.27;;
705;SDS011;21234;48.690;9.016;2023-05-07T07:33:06;4.60;;;4.20;;
705;SDS011;21234;48.690;9.016;2023-05-07T07:35:32;4.00;;;3.67;;
705;SDS011;21234;48.690;9.016;2023-05-07T07:37:59;5.87;;;3.30;;
705;SDS011;21234;48.690;9.016;2023-05-07T07:40:28;3.60;;;3.30;;
705;SDS011;21234;48.690;9.016;2023-05-07T07:42:54;3.60;;;3.30;;
705;SDS011;21234;48.690;9.016;2023-05-07T07:45:22;3.10;;;2.77;;
705;SDS011;21234;48.690;9.016;2023-05-07T07:47:49;3.33;;;3.10;;
705;SDS011;21234;48.690;9.016;2023-05-07T07:50:16;3.57;;;3.07;;
705;SDS011;21234;48.690;9.016;2023-05-07T07:52:43;4.90;;;3.00;;
705;SDS011;21234;48.690;9.016;2023-05-07T07:55:10;2.97;;;2.77;;
705;SDS011;21234;48.690;9.016;2023-05-07T07:57:38;3.67;;;3.40;;
705;SDS011;21234;48.690;9.016;2023-05-07T08:00:06;3.20;;;3.00;;
705;SDS011;21234;48.690;9.016;2023-05-07T08:02:33;2.57;;;2.37;;
705;SDS011;21234;48.690;9.016;2023-05-07T08:04:59;3.47;;;2.93;;
705;SDS011;21234;48.690;9.016;2023-05-07T08:07:26;3.20;;;3.00;;
705;SDS011;21234;48.690;9.016;2023-05-07T08:09:53;3.30;;;3.00;;
705;SDS011;21234;48.690;9.016;2023-05-07T08:12:20;4.47;;;2.80;;
705;SDS011;21234;48.690;9.016;2023-05-07T08:14:48;2.57;;;2.37;;
705;SDS011;21234;48.690;9.016;2023-05-07T08:17:15;2.77;;;2.40;;
705;SDS011;21234;48.690;9.016;2023-05-07T08:19:41;3.10;;;2.80;;
705;SDS011;21234;48.690;9.016;2023-05-07T08:22:08;2.90;;;2.60;;
705;SDS011;21234;48.690;9.016;2023-05-07T08:24:35;3.80;;;3.17;;
705;SDS011;21234;48.690;9.016;2023-05-07T08:27:02;2.97;;;2.27;;
705;SDS011;21234;48.690;9.016;2023-05-07T08:29:29;2.90;;;2.70;;
705;SDS011;21234;48.690;9.016;2023-05-07T08:31:57;2.80;;;2.60;;
705;SDS011;21234;48.690;9.016;2023-05-07T08:34:24;2.50;;;2.30;;
705;SDS011;21234;48.690;9.016;2023-05-07T08:36:51;5.10;;;2.67;;
705;SDS011;21234;48.690;9.016;2023-05-07T08:39:18;3.27;;;2.97;;
705;SDS011;21234;48.690;9.016;2023-05-07T08:41:44;2.63;;;2.13;;
705;SDS011;21234;48.690;9.016;2023-05-07T08:44:12;2.50;;;2.30;;
705;SDS011;21234;48.690;9.016;2023-05-07T08:46:40;2.47;;;2.27;;
705;SDS011;21234;48.690;9.016;2023-05-07T08:49:10;3.50;;;3.10;;
705;SDS011;21234;48.690;9.016;2023-05-07T08:51:36;2.10;;;2.00;;
705;SDS011;21234;48.690;9.016;2023-05-07T08:54:04;2.97;;;2.70;;
705;SDS011;21234;48.690;9.016;2023-05-07T08:56:32;3.90;;;2.50;;
705;SDS011;21234;48.690;9.016;2023-05-07T08:58:59;2.27;;;2.03;;
705;SDS011;21234;48.690;9.016;2023-05-07T09:01:25;2.50;;;2.30;;
705;SDS011;21234;48.690;9.016;2023-05-07T09:03:52;2.30;;;2.10;;
705;SDS011;21234;48.690;9.016;2023-05-07T09:06:21;2.93;;;2.73;;
705;SDS011;21234;48.690;9.016;2023-05-07T09:08:51;2.60;;;2.40;;
705;SDS011;21234;48.690;9.016;2023-05-07T09:11:22;5.03;;;2.57;;
705;SDS011;21234;48.690;9.016;2023-05-07T09:13:48;3.93;;;2.63;;
705;SDS011;21234;48.690;9.016;2023-05-07T09:16:19;2.23;;;2.03;;
705;SDS011;21234;48.690;9.016;2023-05-07T09:18:46;4.20;;;2.47;;
705;SDS011;21234;48.690;9.016;2023-05-07T09:21:14;3.03;;;2.80;;
705;SDS011;21234;48.690;9.016;2023-05-07T09:23:43;3.00;;;2.70;;
705;SDS011;21234;48.690;9.016;2023-05-07T09:26:10;3.73;;;2.67;;
705;SDS011;21234;48.690;9.016;2023-05-07T09:28:38;2.37;;;2.20;;
705;SDS011;21234;48.690;9.016;2023-05-07T09:31:06;4.50;;;2.53;;
705;SDS011;21234;48.690;9.016;2023-05-07T09:33:33;3.10;;;2.90;;
705;SDS011;21234;48.690;9.016;2023-05-07T09:36:02;3.07;;;2.87;;
705;SDS011;21234;48.690;9.016;2023-05-07T09:38:30;4.27;;;2.90;;
705;SDS011;21234;48.690;9.016;2023-05-07T09:41:04;3.80;;;3.43;;
705;SDS011;21234;48.690;9.016;2023-05-07T09:43:33;3.50;;;3.00;;
705;SDS011;21234;48.690;9.016;2023-05-07T09:46:02;3.00;;;2.70;;
705;SDS011;21234;48.690;9.016;2023-05-07T09:48:29;3.20;;;2.90;;
705;SDS011;21234;48.690;9.016;2023-05-07T09:50:57;3.47;;;3.17;;
705;SDS011;21234;48.690;9.016;2023-05-07T09:53:29;3.00;;;2.77;;
705;SDS011;21234;48.690;9.016;2023-05-07T09:55:57;3.20;;;2.90;;
705;SDS011;21234;48.690;9.016;2023-05-07T09:58:26;3.23;;;3.03;;
705;SDS011;21234;48.690;9.016;2023-05-07T10:00:54;3.10;;;2.73;;
705;SDS011;21234;48.690;9.016;2023-05-07T10:03:22;5.13;;;3.30;;
705;SDS011;21234;48.690;9.016;2023-05-07T10:05:52;3.13;;;2.93;;
705;SDS011;21234;48.690;9.016;2023-05-07T10:08:20;3.70;;;3.30;;
705;SDS011;21234;48.690;9.016;2023-05-07T10:10:47;5.03;;;2.90;;
705;SDS011;21234;48.690;9.016;2023-05-07T10:13:15;3.00;;;2.70;;
705;SDS011;21234;48.690;9.016;2023-05-07T10:15:44;3.73;;;3.53;;
705;SDS011;21234;48.690;9.016;2023-05-07T10:18:11;3.07;;;2.77;;
705;SDS011;21234;48.690;9.016;2023-05-07T10:20:38;3.97;;;3.67;;
705;SDS011;21234;48.690;9.016;2023-05-07T10:23:07;3.40;;;3.10;;
705;SDS011;21234;48.690;9.016;2023-05-07T10:25:40;5.17;;;4.77;;
705;SDS011;21234;48.690;9.016;2023-05-07T10:28:07;4.13;;;3.60;;
705;SDS011;21234;48.690;9.016;2023-05-07T10:30:39;3.20;;;2.97;;
705;SDS011;21234;48.690;9.016;2023-05-07T10:33:16;3.37;;;3.13;;
705;SDS011;21234;48.690;9.016;2023-05-07T10:35:47;3.67;;;3.37;;
705;SDS011;21234;48.690;9.016;2023-05-07T10:38:14;3.83;;;3.03;;
705;SDS011;21234;48.690;9.016;2023-05-07T10:40:41;2.70;;;2.50;;
705;SDS011;21234;48.690;9.016;2023-05-07T10:43:09;4.10;;;3.70;;
705;SDS011;21234;48.690;9.016;2023-05-07T10:45:36;4.10;;;3.80;;
705;SDS011;21234;48.690;9.016;2023-05-07T10:48:06;6.53;;;5.23;;
705;SDS011;21234;48.690;9.016;2023-05-07T10:50:38;2.73;;;2.53;;
705;SDS011;21234;48.690;9.016;2023-05-07T10:53:22;4.37;;;3.97;;
705;SDS011;21234;48.690;9.016;2023-05-07T10:58:51;5.77;;;5.00;;
705;SDS011;21234;48.690;9.016;2023-05-07T11:04:24;3.00;;;2.70;;
705;SDS011;21234;48.690;9.016;2023-05-07T11:09:57;2.73;;;2.53;;
705;SDS011;21234;48.690;9.016;2023-05-07T11:15:37;3.37;;;3.13;;
705;SDS011;21234;48.690;9.016;2023-05-07T11:18:13;3.13;;;2.83;;
705;SDS011;21234;48.690;9.016;2023-05-07T11:20:44;2.40;;;2.30;;
705;SDS011;21234;48.690;9.016;2023-05-07T11:26:15;5.10;;;3.47;;
705;SDS011;21234;48.690;9.016;2023-05-07T11:28:43;3.20;;;2.83;;
705;SDS011;21234;48.690;9.016;2023-05-07T11:31:10;2.90;;;2.70;;
705;SDS011;21234;48.690;9.016;2023-05-07T11:33:37;2.70;;;2.50;;
705;SDS011;21234;48.690;9.016;2023-05-07T11:36:04;5.43;;;3.03;;
705;SDS011;21234;48.690;9.016;2023-05-07T11:38:35;3.63;;;3.33;;
705;SDS011;21234;48.690;9.016;2023-05-07T11:41:04;2.93;;;2.73;;
705;SDS011;21234;48.690;9.016;2023-05-07T11:43:33;3.50;;;3.30;;
705;SDS011;21234;48.690;9.016;2023-05-07T11:46:08;2.27;;;2.07;;
705;SDS011;21234;48.690;9.016;2023-05-07T11:48:36;3.17;;;2.87;;
705;SDS011;21234;48.690;9.016;2023-05-07T11:51:03;2.60;;;2.40;;
705;SDS011;21234;48.690;9.016;2023-05-07T11:53:35;3.40;;;3.13;;
705;SDS011;21234;48.690;9.016;2023-05-07T11:56:05;3.40;;;3.10;;
705;SDS011;21234;48.690;9.016;2023-05-07T11:58:34;3.87;;;3.57;;
705;SDS011;21234;48.690;9.016;2023-05-07T12:01:01;3.57;;;3.27;;
705;SDS011;21234;48.690;9.016;2023-05-07T12:03:28;2.80;;;2.60;;
705;SDS011;21234;48.690;9.016;2023-05-07T12:05:55;2.97;;;2.10;;
705;SDS011;21234;48.690;9.016;2023-05-07T12:08:22;1.77;;;1.27;;
705;SDS011;21234;48.690;9.016;2023-05-07T12:10:49;1.30;;;1.10;;
705;SDS011;21234;48.690;9.016;2023-05-07T12:13:16;1.17;;;1.07;;
705;SDS011;21234;48.690;9.016;2023-05-07T12:15:45;2.57;;;1.57;;
705;SDS011;21234;48.690;9.016;2023-05-07T12:18:12;1.80;;;1.30;;
705;SDS011;21234;48.690;9.016;2023-05-07T12:20:39;2.73;;;0.90;;
705;SDS011;21234;48.690;9.016;2023-05-07T12:23:06;3.40;;;1.90;;
705;SDS011;21234;48.690;9.016;2023-05-07T12:25:34;1.47;;;1.10;;
705;SDS011;21234;48.690;9.016;2023-05-07T12:28:01;2.03;;;1.70;;
705;SDS011;21234;48.690;9.016;2023-05-07T12:30:29;1.90;;;1.70;;
705;SDS011;21234;48.690;9.016;2023-05-07T12:32:58;1.60;;;1.50;;
705;SDS011;21234;48.690;9.016;2023-05-07T12:35:27;2.50;;;2.30;;
705;SDS011;21234;48.690;9.016;2023-05-07T12:37:54;2.57;;;1.53;;
705;SDS011;21234;48.690;9.016;2023-05-07T12:40:21;2.10;;;1.77;;
705;SDS011;21234;48.690;9.016;2023-05-07T12:42:48;3.90;;;2.20;;
705;SDS011;21234;48.690;9.016;2023-05-07T12:45:19;2.60;;;2.40;;
705;SDS011;21234;48.690;9.016;2023-05-07T12:47:46;2.00;;;1.90;;
705;SDS011;21234;48.690;9.016;2023-05-07T12:50:15;2.33;;;2.13;;
705;SDS011;21234;48.690;9.016;2023-05-07T12:52:42;6.50;;;2.00;;
705;SDS011;21234;48.690;9.016;2023-05-07T12:55:11;2.50;;;2.03;;
705;SDS011;21234;48.690;9.016;2023-05-07T12:57:40;3.67;;;2.20;;
705;SDS011;21234;48.690;9.016;2023-05-07T13:00:08;3.00;;;2.70;;
705;SDS011;21234;48.690;9.016;2023-05-07T13:02:37;1.63;;;1.53;;
705;SDS011;21234;48.690;9.016;2023-05-07T13:05:05;2.00;;;1.40;;
705;SDS011;21234;48.690;9.016;2023-05-07T13:07:33;2.47;;;1.60;;
705;SDS011;21234;48.690;9.016;2023-05-07T13:10:00;3.07;;;1.33;;
705;SDS011;21234;48.690;9.016;2023-05-07T13:12:27;2.80;;;1.77;;
705;SDS011;21234;48.690;9.016;2023-05-07T13:14:53;2.33;;;1.67;;
705;SDS011;21234;48.690;9.016;2023-05-07T13:17:20;2.50;;;1.60;;
705;SDS011;21234;48.690;9.016;2023-05-07T13:19:47;4.30;;;2.03;;
705;SDS011;21234;48.690;9.016;2023-05-07T13:22:14;5.77;;;2.40;;
705;SDS011;21234;48.690;9.016;2023-05-07T13:24:42;1.60;;;1.50;;
705;SDS011;21234;48.690;9.016;2023-05-07T13:27:08;1.67;;;1.53;;
705;SDS011;21234;48.690;9.016;2023-05-07T13:29:35;2.40;;;1.90;;
705;SDS011;21234;48.690;9.016;2023-05-07T13:32:02;2.07;;;1.87;;
705;SDS011;21234;48.690;9.016;2023-05-07T13:34:29;2.60;;;2.30;;
705;SDS011;21234;48.690;9.016;2023-05-07T13:36:56;3.03;;;2.47;;
705;SDS011;21234;48.690;9.016;2023-05-07T13:39:22;4.23;;;2.50;;
705;SDS011;21234;48.690;9.016;2023-05-07T13:41:50;5.67;;;2.63;;
705;SDS011;21234;48.690;9.016;2023-05-07T13:44:17;2.37;;;2.17;;
705;SDS011;21234;48.690;9.016;2023-05-07T13:46:44;3.13;;;2.83;;
705;SDS011;21234;48.690;9.016;2023-05-07T13:49:11;4.60;;;2.97;;
705;SDS011;21234;48.690;9.016;2023-05-07T13:51:45;4.67;;;3.10;;
705;SDS011;21234;48.690;9.016;2023-05-07T13:54:12;3.73;;;2.63;;
705;SDS011;21234;48.690;9.016;2023-05-07T13:56:39;3.07;;;2.57;;
705;SDS011;21234;48.690;9.016;2023-05-07T13:59:07;3.03;;;2.73;;
705;SDS011;21234;48.690;9.016;2023-05-07T14:01:34;4.20;;;3.10;;
705;SDS011;21234;48.690;9.016;2023-05-07T14:04:01;3.80;;;3.13;;
705;SDS011;21234;48.690;9.016;2023-05-07T14:06:28;4.30;;;3.10;;
705;SDS011;21234;48.690;9.016;2023-05-07T14:08:55;3.17;;;2.87;;
705;SDS011;21234;48.690;9.016;2023-05-07T14:11:23;3.33;;;3.03;;
705;SDS011;21234;48.690;9.016;2023-05-07T14:13:49;3.57;;;3.27;;
705;SDS011;21234;48.690;9.016;2023-05-07T14:16:17;13.37;;;2.90;;
705;SDS011;21234;48.690;9.016;2023-05-07T14:18:44;2.27;;;2.10;;
705;SDS011;21234;48.690;9.016;2023-05-07T14:21:11;3.00;;;2.30;;
705;SDS011;21234;48.690;9.016;2023-05-07T14:23:38;3.50;;;2.40;;
705;SDS011;21234;48.690;9.016;2023-05-07T14:26:05;3.53;;;2.63;;
705;SDS011;21234;48.690;9.016;2023-05-07T14:28:31;5.00;;;2.50;;
705;SDS011;21234;48.690;9.016;2023-05-07T14:30:58;1.83;;;1.73;;
705;SDS011;21234;48.690;9.016;2023-05-07T14:33:27;3.57;;;2.13;;
705;SDS011;21234;48.690;9.016;2023-05-07T14:35:54;2.70;;;1.90;;
705;SDS011;21234;48.690;9.016;2023-05-07T14:38:21;3.53;;;2.60;;
705;SDS011;21234;48.690;9.016;2023-05-07T14:40:48;2.30;;;2.10;;
705;SDS011;21234;48.690;9.016;2023-05-07T14:43:15;2.23;;;2.03;;
705;SDS011;21234;48.690;9.016;2023-05-07T14:45:45;2.10;;;1.90;;
705;SDS011;21234;48.690;9.016;2023-05-07T14:48:15;1.97;;;1.77;;
705;SDS011;21234;48.690;9.016;2023-05-07T14:50:47;1.70;;;1.60;;
705;SDS011;21234;48.690;9.016;2023-05-07T14:53:14;3.20;;;2.20;;
705;SDS011;21234;48.690;9.016;2023-05-07T14:55:42;2.50;;;2.30;;
705;SDS011;21234;48.690;9.016;2023-05-07T14:58:10;2.10;;;1.97;;
705;SDS011;21234;48.690;9.016;2023-05-07T15:00:40;3.03;;;2.40;;
705;SDS011;21234;48.690;9.016;2023-05-07T15:03:09;2.70;;;2.50;;
705;SDS011;21234;48.690;9.016;2023-05-07T15:05:38;3.20;;;2.33;;
705;SDS011;21234;48.690;9.016;2023-05-07T15:08:06;2.53;;;2.20;;
705;SDS011;21234;48.690;9.016;2023-05-07T15:10:35;3.07;;;2.73;;
705;SDS011;21234;48.690;9.016;2023-05-07T15:13:07;2.80;;;2.50;;
705;SDS011;21234;48.690;9.016;2023-05-07T15:15:38;4.70;;;3.10;;
705;SDS011;21234;48.690;9.016;2023-05-07T15:18:06;2.50;;;2.30;;
705;SDS011;21234;48.690;9.016;2023-05-07T15:20:33;3.67;;;2.40;;
705;SDS011;21234;48.690;9.016;2023-05-07T15:23:00;6.20;;;2.63;;
705;SDS011;21234;48.690;9.016;2023-05-07T15:25:29;3.53;;;2.97;;
705;SDS011;21234;48.690;9.016;2023-05-07T15:27:58;3.73;;;2.50;;
705;SDS011;21234;48.690;9.016;2023-05-07T15:30:25;2.67;;;2.47;;
705;SDS011;21234;48.690;9.016;2023-05-07T15:32:52;3.27;;;2.60;;